Time;durP1;ratioP1;P1;durP2;ratioP2;P2;SDS_P1;SDS_P2;PMS_P1;PMS_P2;Temp;Humidity;BMP_temperature;BMP_pressure;BME280_temperature;BME280_humidity;BME280_pressure;Samples;Min_cycle;Max_cycle;Signal;HPM_P1;HPM_P2
2023/04/04 00:00:04;;;;;;;0.75;0.40;;;;;;;18.54;32.95;102780.06;16115733;19;129662;-43
2023/04/04 00:05:26;;;;;;;1.15;0.40;;;;;;;18.51;32.65;102779.63;16119794;19;130855;-44
2023/04/04 00:10:48;;;;;;;1.00;0.47;;;;;;;18.49;32.87;102776.19;16119193;19;129783;-45
2023/04/04 00:16:10;;;;;;;0.80;0.30;;;;;;;18.45;32.62;102773.84;16118172;19;129768;-44
2023/04/04 00:21:32;;;;;;;0.52;0.30;;;;;;;18.43;32.77;102773.19;16118245;19;130464;-44
2023/04/04 00:26:54;;;;;;;1.25;0.40;;;;;;;18.41;32.85;102769.75;16119834;19;129278;-45
2023/04/04 00:32:16;;;;;;;1.08;0.40;;;;;;;18.39;32.73;102782.06;16112150;19;131794;-44
2023/04/04 00:37:38;;;;;;;0.98;0.50;;;;;;;18.36;33.05;102786.06;16116340;19;130214;-43
2023/04/04 00:43:00;;;;;;;1.67;0.43;;;;;;;18.34;32.73;102795.66;16112030;19;131313;-43
2023/04/04 00:48:23;;;;;;;0.65;0.35;;;;;;;18.29;32.96;102793.47;16110006;19;129883;-46
2023/04/04 00:53:46;;;;;;;0.93;0.40;;;;;;;18.25;32.64;102808.78;16110993;19;134373;-43
2023/04/04 00:59:09;;;;;;;0.98;0.30;;;;;;;18.24;32.70;102812.59;16108808;19;130443;-48
2023/04/04 01:04:31;;;;;;;1.55;0.38;;;;;;;18.21;32.33;102815.78;16110060;19;132519;-43
2023/04/04 01:09:57;;;;;;;0.60;0.30;;;;;;;18.19;32.82;102812.34;16127004;19;129887;-42
2023/04/04 01:15:19;;;;;;;1.38;0.43;;;;;;;18.17;32.62;102811.69;16124235;19;130166;-46
2023/04/04 01:20:52;;;;;;;0.52;0.40;;;;;;;18.14;32.33;102808.25;16130139;19;131585;-43
2023/04/04 01:26:14;;;;;;;0.30;0.30;;;;;;;18.12;32.35;102803.97;16127403;19;129832;-46
2023/04/04 01:31:40;;;;;;;1.00;0.40;;;;;;;18.10;32.38;102801.38;16129191;19;129472;-44
2023/04/04 01:37:29;;;;;;;2.40;0.52;;;;;;;18.08;32.43;102803.50;16125831;19;130875;-44
2023/04/04 01:42:52;;;;;;;1.70;0.52;;;;;;;18.04;32.62;102796.66;16126035;19;130123;-44
2023/04/04 01:48:15;;;;;;;0.30;0.30;;;;;;;18.03;32.70;102796.84;16124782;19;129348;-45
2023/04/04 01:53:37;;;;;;;1.15;0.30;;;;;;;18.00;32.39;102789.78;16126770;19;129853;-45
2023/04/04 01:59:00;;;;;;;0.52;0.40;;;;;;;17.99;32.68;102799.13;16126703;19;129905;-46
2023/04/04 02:04:22;;;;;;;0.88;0.45;;;;;;;17.96;32.65;102791.25;16124890;19;130720;-45
2023/04/04 02:09:44;;;;;;;1.20;0.45;;;;;;;17.95;32.60;102797.81;16124996;19;131459;-43
2023/04/04 02:15:07;;;;;;;0.88;0.40;;;;;;;17.93;32.92;102794.38;16125123;19;129817;-48
2023/04/04 02:20:29;;;;;;;1.95;0.55;;;;;;;17.90;32.81;102790.13;16119880;19;130117;-43
2023/04/04 02:25:51;;;;;;;0.85;0.30;;;;;;;17.87;32.87;102784.09;16123115;19;129780;-46
2023/04/04 02:31:13;;;;;;;1.98;0.40;;;;;;;17.87;32.29;102789.63;16123738;19;129597;-46
2023/04/04 02:36:36;;;;;;;0.77;0.50;;;;;;;17.83;32.31;102778.97;16119058;19;129660;-47
2023/04/04 02:41:58;;;;;;;0.95;0.38;;;;;;;17.82;32.36;102780.00;16120057;19;131097;-44
2023/04/04 02:47:19;;;;;;;0.30;0.30;;;;;;;17.80;32.48;102776.56;16120883;19;130556;-44
2023/04/04 02:52:41;;;;;;;1.17;0.55;;;;;;;17.79;32.58;102771.22;16121820;19;129293;-46
2023/04/04 02:58:03;;;;;;;0.95;0.50;;;;;;;17.77;32.49;102768.66;16122520;19;129809;-43
2023/04/04 03:03:26;;;;;;;0.50;0.40;;;;;;;17.74;32.66;102780.13;16115331;19;134237;-45
2023/04/04 03:08:48;;;;;;;0.80;0.60;;;;;;;17.73;32.61;102785.84;16123108;19;130335;-44
2023/04/04 03:14:10;;;;;;;0.60;0.40;;;;;;;17.71;32.65;102786.06;16120807;19;130566;-43
2023/04/04 03:19:32;;;;;;;1.40;0.40;;;;;;;17.69;32.34;102782.63;16117200;19;129567;-46
2023/04/04 03:24:54;;;;;;;1.52;0.43;;;;;;;17.66;32.35;102789.38;16115431;19;129485;-44
2023/04/04 03:30:16;;;;;;;1.00;0.55;;;;;;;17.66;32.55;102791.31;16118235;19;130364;-44
2023/04/04 03:35:39;;;;;;;0.80;0.35;;;;;;;17.63;32.22;102778.72;16116153;19;132195;-45
2023/04/04 03:41:05;;;;;;;1.17;0.45;;;;;;;17.63;32.25;102794.47;16119291;19;129899;-44
2023/04/04 03:46:26;;;;;;;0.98;0.40;;;;;;;17.60;32.70;102779.09;16119378;19;129842;-44
2023/04/04 03:51:48;;;;;;;0.38;0.30;;;;;;;17.58;32.58;102769.28;16115374;19;130871;-46
2023/04/04 03:57:10;;;;;;;0.88;0.50;;;;;;;17.58;32.09;102769.28;16116479;19;129564;-44
2023/04/04 04:02:32;;;;;;;1.23;0.50;;;;;;;17.54;32.24;102774.28;16117914;19;130204;-47
2023/04/04 04:07:55;;;;;;;1.17;0.50;;;;;;;17.52;32.13;102768.97;16115120;19;129477;-44
2023/04/04 04:13:16;;;;;;;1.13;0.60;;;;;;;17.50;32.48;102771.06;16114739;19;130586;-46
2023/04/04 04:18:39;;;;;;;1.48;0.57;;;;;;;17.50;32.40;102767.47;16116860;19;129516;-44
2023/04/04 04:24:00;;;;;;;1.10;0.52;;;;;;;17.47;32.30;102760.41;16117646;19;135812;-45
2023/04/04 04:29:22;;;;;;;0.75;0.40;;;;;;;17.47;32.62;102763.19;16115935;19;129762;-46
2023/04/04 04:34:44;;;;;;;0.63;0.30;;;;;;;17.45;32.23;102759.75;16112936;19;130327;-45
2023/04/04 04:40:07;;;;;;;1.00;0.30;;;;;;;17.45;31.99;102769.94;16112805;19;130236;-44
2023/04/04 04:45:30;;;;;;;1.40;0.60;;;;;;;17.43;32.43;102781.19;16110014;19;131182;-43
2023/04/04 04:50:52;;;;;;;0.68;0.35;;;;;;;17.41;32.24;102794.38;16111705;19;130386;-44
2023/04/04 04:56:14;;;;;;;1.17;0.60;;;;;;;17.39;32.25;102789.03;16111337;19;129846;-46
2023/04/04 05:01:36;;;;;;;0.73;0.35;;;;;;;17.39;32.47;102788.16;16114680;19;129531;-46
2023/04/04 05:06:58;;;;;;;0.70;0.40;;;;;;;17.41;32.24;102788.84;16111147;19;129361;-43
2023/04/04 05:12:19;;;;;;;0.93;0.50;;;;;;;17.79;32.27;102798.91;16113351;19;129911;-43
2023/04/04 05:17:41;;;;;;;5.95;0.52;;;;;;;18.33;31.66;102793.94;16111618;19;129536;-47
2023/04/04 05:23:04;;;;;;;7.88;1.00;;;;;;;18.72;30.90;102793.44;16113756;19;129447;-48
2023/04/04 05:28:26;;;;;;;21.30;1.70;;;;;;;18.98;30.44;102797.47;16113640;19;129529;-46
2023/04/04 05:33:48;;;;;;;3.15;1.00;;;;;;;19.11;30.21;102798.63;16114194;19;129410;-44
2023/04/04 05:39:10;;;;;;;3.75;0.77;;;;;;;19.19;29.86;102799.31;16112545;19;129647;-44
2023/04/04 05:44:32;;;;;;;5.70;1.20;;;;;;;19.21;29.91;102796.34;16108303;19;131093;-44
2023/04/04 05:49:54;;;;;;;9.23;0.98;;;;;;;19.21;30.10;102808.31;16111556;19;130677;-45
2023/04/04 05:55:16;;;;;;;8.18;1.00;;;;;;;19.21;30.34;102813.00;16117375;19;129590;-47
2023/04/04 06:00:37;;;;;;;5.75;0.90;;;;;;;19.17;30.41;102820.00;16126584;19;130144;-44
2023/04/04 06:06:03;;;;;;;5.07;0.93;;;;;;;19.15;30.37;102819.34;16123853;19;130429;-46
2023/04/04 06:11:25;;;;;;;6.10;1.20;;;;;;;19.10;30.52;102816.31;16127775;19;131199;-44
2023/04/04 06:16:47;;;;;;;2.45;0.60;;;;;;;19.06;30.44;102826.97;16122978;19;129699;-46
2023/04/04 06:22:09;;;;;;;6.85;1.23;;;;;;;18.99;30.57;102832.47;16125616;19;130812;-44
2023/04/04 06:27:31;;;;;;;5.22;1.00;;;;;;;18.94;30.72;102828.59;16119882;19;130551;-47
2023/04/04 06:32:53;;;;;;;3.70;0.70;;;;;;;18.93;30.44;102841.63;16120799;19;130858;-44
2023/04/04 06:38:15;;;;;;;4.82;0.90;;;;;;;;;;16123364;19;130887;-41
2023/04/04 06:43:37;;;;;;;1.90;0.80;;;;;;;18.97;30.77;102845.69;16122895;19;129248;-43
2023/04/04 06:48:59;;;;;;;2.53;0.80;;;;;;;19.17;30.20;102837.50;16124623;19;130314;-44
2023/04/04 06:54:21;;;;;;;3.92;1.10;;;;;;;19.45;30.44;102836.63;16124291;19;130993;-42
2023/04/04 06:59:43;;;;;;;5.03;1.02;;;;;;;19.71;29.78;102846.16;16123593;19;129543;-42
2023/04/04 07:05:06;;;;;;;1.55;0.70;;;;;;;19.91;29.58;102857.34;16117577;19;132116;-43
2023/04/04 07:10:28;;;;;;;4.85;0.80;;;;;;;20.10;29.73;102852.09;16120508;19;130078;-41
2023/04/04 07:15:50;;;;;;;1.90;0.80;;;;;;;20.24;29.79;102845.50;16119087;19;129519;-44
2023/04/04 07:21:12;;;;;;;6.15;0.70;;;;;;;20.35;29.73;102849.59;16123844;19;129539;-42
2023/04/04 07:26:34;;;;;;;4.38;0.80;;;;;;;20.35;29.53;102859.84;16121288;19;130728;-41
2023/04/04 07:31:56;;;;;;;2.05;0.93;;;;;;;20.32;29.66;102849.13;16119725;19;129465;-46
2023/04/04 07:37:18;;;;;;;3.95;0.90;;;;;;;20.28;29.46;102855.13;16114366;19;131059;-41
2023/04/04 07:42:44;;;;;;;5.10;1.00;;;;;;;20.22;29.69;102839.28;16120613;19;129473;-44
2023/04/04 07:48:06;;;;;;;2.53;0.75;;;;;;;20.15;29.58;102838.44;16120274;19;131103;-41
2023/04/04 07:53:28;;;;;;;6.75;1.05;;;;;;;20.05;29.61;102829.66;16117543;19;130994;-42
2023/04/04 07:58:50;;;;;;;5.22;0.93;;;;;;;19.97;29.86;102831.50;16117365;19;129713;-44
2023/04/04 08:04:11;;;;;;;4.07;0.80;;;;;;;19.95;30.02;102830.00;16120483;19;130767;-44
2023/04/04 08:09:35;;;;;;;8.82;1.10;;;;;;;19.96;30.16;102815.91;16120127;19;129650;-45
2023/04/04 08:14:57;;;;;;;5.95;0.93;;;;;;;20.11;30.16;102823.25;16116804;19;129329;-42
2023/04/04 08:20:19;;;;;;;1.75;0.70;;;;;;;20.32;29.88;102826.91;16116715;19;130439;-49
2023/04/04 08:25:42;;;;;;;3.30;0.75;;;;;;;20.52;30.03;102829.69;16114957;19;130663;-49
2023/04/04 08:31:04;;;;;;;2.65;0.73;;;;;;;20.73;29.57;102828.63;16115932;19;130087;-48
2023/04/04 08:36:27;;;;;;;2.13;0.73;;;;;;;20.86;29.45;102831.44;16114582;19;131107;-50
2023/04/04 08:41:57;;;;;;;2.90;0.68;;;;;;;20.93;29.24;102836.13;16114846;19;130360;-50
2023/04/04 08:47:20;;;;;;;2.55;0.80;;;;;;;20.93;29.35;102833.34;16115625;19;129683;-47
2023/04/04 08:52:43;;;;;;;3.72;0.90;;;;;;;20.88;29.04;102837.66;16116899;19;130177;-43
2023/04/04 08:58:05;;;;;;;4.25;1.10;;;;;;;20.83;28.93;102834.66;16116004;19;130154;-49
2023/04/04 09:03:31;;;;;;;2.08;0.60;;;;;;;20.72;29.44;102827.81;16108191;19;130801;-43
2023/04/04 09:08:56;;;;;;;4.80;0.80;;;;;;;20.59;29.40;102828.63;16113899;19;131313;-45
2023/04/04 09:14:20;;;;;;;2.95;0.80;;;;;;;20.48;29.31;102826.50;16113891;19;130280;-43
2023/04/04 09:19:42;;;;;;;5.22;0.63;;;;;;;20.36;29.26;102836.53;16110966;19;129298;-42
2023/04/04 09:25:07;;;;;;;1.92;0.60;;;;;;;20.24;29.63;102828.81;16115028;19;129695;-44
2023/04/04 09:30:29;;;;;;;1.10;0.73;;;;;;;20.12;29.52;102825.78;16124449;19;130745;-42
2023/04/04 09:35:57;;;;;;;4.97;0.80;;;;;;;20.03;29.48;102823.44;16132176;19;130052;-43
2023/04/04 09:41:20;;;;;;;2.60;0.60;;;;;;;19.91;29.53;102823.16;16130257;19;129941;-42
2023/04/04 09:46:42;;;;;;;2.05;0.90;;;;;;;19.80;29.78;102822.69;16126344;19;130235;-42
2023/04/04 09:52:17;;;;;;;4.53;0.63;;;;;;;19.71;29.64;102823.06;16123329;19;129751;-44
2023/04/04 09:57:40;;;;;;;3.70;0.70;;;;;;;19.60;29.84;102816.22;16127199;19;129798;-42
2023/04/04 10:03:03;;;;;;;3.47;0.60;;;;;;;19.50;29.96;102811.03;16124533;19;131013;-45
2023/04/04 10:08:27;;;;;;;3.40;0.60;;;;;;;19.44;30.15;102809.09;16131528;19;129555;-44
2023/04/04 10:13:52;;;;;;;8.35;1.05;;;;;;;19.41;29.56;102806.72;16122108;19;129347;-43
2023/04/04 10:19:16;;;;;;;5.55;0.63;;;;;;;19.36;29.36;102794.31;16122804;19;129658;-44
2023/04/04 10:24:39;;;;;;;10.40;1.20;;;;;;;19.38;28.93;102791.34;16125546;19;129488;-44
2023/04/04 10:30:01;;;;;;;6.70;1.10;;;;;;;19.42;28.97;102783.47;16125829;19;132900;-43
2023/04/04 10:35:23;;;;;;;11.55;1.15;;;;;;;19.47;28.64;102778.13;16126076;19;129945;-47
2023/04/04 10:40:49;;;;;;;6.90;1.10;;;;;;;19.54;28.63;102779.03;16122447;19;129575;-43
2023/04/04 10:46:14;;;;;;;8.90;1.00;;;;;;;19.61;28.49;102773.50;16124633;19;129667;-44
2023/04/04 10:51:36;;;;;;;;;;;;;;;19.64;28.64;102779.50;16127572;19;130316;-45
2023/04/04 10:57:13;;;;;;;3.75;0.60;;;;;;;19.68;28.32;102766.91;16120614;19;130055;-45
2023/04/04 11:02:55;;;;;;;3.95;0.90;;;;;;;19.69;28.48;102762.19;16124349;19;129620;-45
2023/04/04 11:08:24;;;;;;;5.03;0.65;;;;;;;19.62;28.51;102764.13;16123815;19;129974;-42
2023/04/04 11:13:58;;;;;;;9.85;1.17;;;;;;;19.57;28.36;102756.38;16123485;19;131220;-43
2023/04/04 11:19:21;;;;;;;6.00;0.80;;;;;;;19.52;28.43;102750.63;16122929;19;129590;-43
2023/04/04 11:24:44;;;;;;;4.60;1.10;;;;;;;19.52;28.76;102742.28;16118435;19;130883;-44
2023/04/04 11:30:14;;;;;;;7.85;1.20;;;;;;;19.50;28.97;102742.50;16121785;19;130126;-42
2023/04/04 11:35:38;;;;;;;5.97;0.98;;;;;;;19.42;29.66;102739.91;16120385;19;129755;-41
2023/04/04 11:41:01;;;;;;;6.85;1.17;;;;;;;19.34;29.61;102735.38;16116052;19;129300;-42
2023/04/04 11:46:28;;;;;;;6.78;0.98;;;;;;;19.29;29.23;102721.28;16117544;19;129770;-48
2023/04/04 11:51:51;;;;;;;4.00;0.90;;;;;;;19.31;29.07;102732.16;16109016;19;130342;-42
2023/04/04 11:57:18;;;;;;;60.22;5.65;;;;;;;19.45;29.61;102710.84;16115519;19;129564;-42
2023/04/04 12:02:40;;;;;;;39.38;4.00;;;;;;;19.68;28.74;102703.06;16122404;19;129683;-42
2023/04/04 12:08:03;;;;;;;30.70;3.63;;;;;;;19.94;29.12;102698.56;16120316;19;129635;-45
2023/04/04 12:13:30;;;;;;;33.70;3.20;;;;;;;20.17;28.71;102693.72;16119017;19;130315;-44
2023/04/04 12:18:52;;;;;;;25.83;3.67;;;;;;;20.34;28.82;102691.34;16115689;19;129453;-45
2023/04/04 12:24:14;;;;;;;23.52;3.28;;;;;;;20.41;28.39;102679.16;16121088;19;128943;-43
2023/04/04 12:29:37;;;;;;;29.70;3.15;;;;;;;20.45;28.33;102674.00;16113948;19;133955;-43
2023/04/04 12:35:00;;;;;;;11.50;2.25;;;;;;;20.43;28.41;102681.75;16113644;19;128962;-42
2023/04/04 12:40:22;;;;;;;15.57;1.95;;;;;;;20.33;28.35;102667.41;16111843;19;129509;-46
2023/04/04 12:45:44;;;;;;;13.05;2.25;;;;;;;20.22;28.38;102675.31;16111687;19;129734;-48
2023/04/04 12:51:07;;;;;;;16.15;2.20;;;;;;;20.18;28.28;102654.63;16114643;19;130418;-45
2023/04/04 12:56:30;;;;;;;14.27;1.73;;;;;;;20.24;27.95;102644.56;16111098;19;130010;-43
2023/04/04 13:01:52;;;;;;;9.82;1.60;;;;;;;20.31;28.34;102645.38;16114404;19;130469;-46
2023/04/04 13:07:26;;;;;;;7.53;1.50;;;;;;;20.39;28.15;102641.53;16106637;19;130695;-44
2023/04/04 13:13:06;;;;;;;5.90;1.40;;;;;;;20.39;27.15;102639.59;16113044;19;129707;-43
2023/04/04 13:18:38;;;;;;;10.45;1.40;;;;;;;20.45;27.26;102635.09;16111655;19;130738;-43
2023/04/04 13:24:02;;;;;;;8.05;1.88;;;;;;;20.45;27.35;102629.53;16112227;19;129383;-42
2023/04/04 13:29:25;;;;;;;3.53;1.00;;;;;;;20.42;27.27;102613.31;16106692;19;131081;-42
2023/04/04 13:34:48;;;;;;;4.10;1.15;;;;;;;20.35;27.17;102615.22;16108349;19;129685;-44
2023/04/04 13:40:10;;;;;;;6.63;1.30;;;;;;;20.26;27.53;102593.25;16109293;19;131414;-43
2023/04/04 13:45:32;;;;;;;4.35;0.93;;;;;;;20.17;27.22;102591.78;16111259;19;129650;-43
2023/04/04 13:50:54;;;;;;;5.75;0.93;;;;;;;20.09;27.53;102583.63;16111200;19;129548;-43
2023/04/04 13:56:16;;;;;;;3.80;1.10;;;;;;;19.98;27.85;102574.88;16109414;19;129760;-47
2023/04/04 14:01:40;;;;;;;2.58;0.82;;;;;;;19.88;27.81;102568.06;16110121;19;130379;-45
2023/04/04 14:07:02;;;;;;;2.55;0.85;;;;;;;19.80;28.19;102566.34;16113968;19;134235;-44
2023/04/04 14:12:24;;;;;;;5.13;0.85;;;;;;;19.69;27.98;102557.56;16110738;19;130405;-45
2023/04/04 14:17:45;;;;;;;5.72;0.70;;;;;;;19.62;28.14;102553.94;16123302;19;129441;-43
2023/04/04 14:23:08;;;;;;;3.58;0.60;;;;;;;19.55;27.91;102546.69;16126215;19;131391;-44
2023/04/04 14:28:30;;;;;;;3.17;1.00;;;;;;;19.49;28.47;102526.19;16125071;19;129406;-43
2023/04/04 14:33:51;;;;;;;2.47;0.50;;;;;;;19.47;28.36;102539.41;16123679;19;129642;-43
2023/04/04 14:39:13;;;;;;;2.05;0.57;;;;;;;19.46;28.34;102530.25;16122774;19;129631;-42
2023/04/04 14:44:35;;;;;;;1.60;0.75;;;;;;;19.46;27.92;102524.69;16122692;19;129711;-46
2023/04/04 14:49:57;;;;;;;2.33;0.77;;;;;;;19.49;27.89;102523.41;16122203;19;132426;-42
2023/04/04 14:55:19;;;;;;;3.15;0.77;;;;;;;19.52;28.33;102514.66;16118462;19;130290;-47
2023/04/04 15:00:41;;;;;;;2.08;0.50;;;;;;;19.54;27.95;102506.97;16121337;19;131391;-47
2023/04/04 15:06:04;;;;;;;2.28;0.73;;;;;;;19.58;28.34;102512.94;16126068;19;129596;-45
2023/04/04 15:11:27;;;;;;;1.35;0.50;;;;;;;19.61;28.15;102509.75;16121379;19;129369;-45
2023/04/04 15:16:49;;;;;;;1.85;0.50;;;;;;;19.61;28.00;102502.25;16122470;19;129624;-43
2023/04/04 15:22:11;;;;;;;2.10;0.80;;;;;;;19.63;27.77;102507.63;16120573;19;131453;-45
2023/04/04 15:27:33;;;;;;;2.53;0.50;;;;;;;19.63;28.20;102502.06;16118655;19;130793;-44
2023/04/04 15:32:55;;;;;;;2.50;0.73;;;;;;;19.61;28.23;102488.38;16113571;19;129286;-43
2023/04/04 15:38:17;;;;;;;4.18;0.60;;;;;;;19.59;27.80;102482.19;16120628;19;131685;-45
2023/04/04 15:43:41;;;;;;;7.10;0.80;;;;;;;19.58;27.99;102487.97;16119211;19;133662;-43
2023/04/04 15:49:04;;;;;;;3.75;0.80;;;;;;;19.57;27.80;102483.47;16117206;19;129692;-43
2023/04/04 15:54:27;;;;;;;2.42;0.80;;;;;;;19.57;27.57;102473.22;16118558;19;135244;-44
2023/04/04 15:59:49;;;;;;;3.25;1.33;;;;;;;19.56;27.69;102470.66;16116922;19;130181;-44
2023/04/04 16:05:11;;;;;;;2.50;1.00;;;;;;;19.54;27.67;102462.56;16110145;19;130786;-47
2023/04/04 16:10:34;;;;;;;3.55;0.73;;;;;;;19.56;27.69;102454.88;16119602;19;130980;-44
2023/04/04 16:15:55;;;;;;;3.38;1.02;;;;;;;19.58;27.75;102449.09;16117049;19;129561;-48
2023/04/04 16:21:17;;;;;;;6.07;1.70;;;;;;;19.58;27.50;102443.53;16115655;19;130769;-45
2023/04/04 16:26:45;;;;;;;6.05;1.20;;;;;;;19.58;27.93;102438.84;16118192;19;129671;-46
2023/04/04 16:32:09;;;;;;;5.32;1.25;;;;;;;19.59;27.87;102440.53;16112700;19;129780;-49
2023/04/04 16:37:31;;;;;;;8.98;1.20;;;;;;;19.66;27.70;102438.63;16114794;19;130058;-46
2023/04/04 16:42:52;;;;;;;2.95;1.02;;;;;;;19.80;27.84;102433.03;16116818;19;130895;-47
2023/04/04 16:48:14;;;;;;;4.18;1.20;;;;;;;19.87;27.78;102438.59;16115638;19;129651;-49
2023/04/04 16:53:37;;;;;;;9.05;1.00;;;;;;;19.86;27.53;102437.72;16112914;19;130646;-47
2023/04/04 16:59:00;;;;;;;4.20;1.05;;;;;;;19.81;27.78;102434.75;16116043;19;129565;-46
2023/04/04 17:04:22;;;;;;;3.13;1.10;;;;;;;19.77;27.61;102439.88;16112282;19;130575;-45
2023/04/04 17:09:44;;;;;;;7.95;1.50;;;;;;;19.68;27.85;102430.94;16114784;19;130832;-46
2023/04/04 17:15:08;;;;;;;2.92;0.90;;;;;;;19.63;27.91;102432.66;16102230;19;130892;-44
2023/04/04 17:20:31;;;;;;;4.78;0.80;;;;;;;19.64;28.17;102431.56;16108301;19;131184;-45
2023/04/04 17:25:55;;;;;;;4.60;0.80;;;;;;;19.73;27.76;102434.97;16112098;19;130643;-46
2023/04/04 17:31:17;;;;;;;6.38;1.40;;;;;;;19.81;28.20;102434.75;16111639;19;130726;-43
2023/04/04 17:36:39;;;;;;;6.03;1.63;;;;;;;19.88;28.89;102443.91;16111125;19;129702;-47
2023/04/04 17:42:01;;;;;;;11.25;1.63;;;;;;;19.89;29.30;102441.97;16109766;19;129808;-46
2023/04/04 17:47:23;;;;;;;13.52;1.95;;;;;;;19.92;29.04;102436.84;16112497;19;129690;-43
2023/04/04 17:52:45;;;;;;;21.95;2.00;;;;;;;19.96;28.97;102434.50;16126442;19;129622;-44
2023/04/04 17:58:07;;;;;;;18.60;1.77;;;;;;;20.03;29.35;102432.56;16123430;19;129536;-45
2023/04/04 18:03:30;;;;;;;13.70;1.30;;;;;;;20.12;29.17;102433.19;16124624;19;129645;-47
2023/04/04 18:08:53;;;;;;;15.20;1.70;;;;;;;20.19;29.45;102430.38;16125817;19;130018;-46
2023/04/04 18:14:15;;;;;;;10.02;1.70;;;;;;;20.22;29.38;102430.78;16125722;19;129407;-45
2023/04/04 18:19:37;;;;;;;9.10;1.42;;;;;;;20.25;29.62;102424.78;16122246;19;132449;-44
2023/04/04 18:25:01;;;;;;;12.10;1.38;;;;;;;20.20;29.63;102429.31;16122696;19;130511;-45
2023/04/04 18:30:22;;;;;;;8.82;1.35;;;;;;;20.12;29.69;102424.84;16121776;19;129668;-44
2023/04/04 18:35:45;;;;;;;8.38;1.25;;;;;;;20.04;29.87;102433.44;16119376;19;129799;-46
2023/04/04 18:41:07;;;;;;;15.45;1.40;;;;;;;19.97;30.13;102434.25;16123670;19;129864;-43
2023/04/04 18:46:29;;;;;;;12.60;1.52;;;;;;;19.94;30.14;102434.69;16124298;19;129670;-44
2023/04/04 18:51:51;;;;;;;12.07;1.48;;;;;;;20.03;30.05;102442.84;16123336;19;129913;-44
2023/04/04 18:57:13;;;;;;;6.57;1.00;;;;;;;20.18;30.12;102439.78;16122672;19;130945;-43
2023/04/04 19:02:36;;;;;;;17.17;1.80;;;;;;;20.37;30.12;102449.09;16117009;19;129405;-46
2023/04/04 19:08:00;;;;;;;18.67;2.47;;;;;;;20.57;29.88;102440.66;16119697;19;131864;-44
2023/04/04 19:13:22;;;;;;;12.00;1.67;;;;;;;20.74;30.35;102446.53;16117866;19;129805;-44
2023/04/04 19:18:43;;;;;;;14.18;1.38;;;;;;;20.87;30.30;102442.84;16119569;19;129393;-46
2023/04/04 19:24:06;;;;;;;3.00;0.90;;;;;;;20.99;29.90;102438.25;16122205;19;129622;-45
2023/04/04 19:29:30;;;;;;;10.93;2.10;;;;;;;21.09;30.04;102450.84;16118617;19;129460;-43
2023/04/04 19:34:52;;;;;;;11.77;1.52;;;;;;;21.13;29.79;102452.06;16121714;19;129596;-43
2023/04/04 19:40:15;;;;;;;5.85;0.90;;;;;;;21.12;30.00;102461.50;16117480;19;129688;-47
2023/04/04 19:45:56;;;;;;;6.25;0.85;;;;;;;21.08;29.95;102466.66;16117647;19;129446;-42
2023/04/04 19:51:21;;;;;;;13.20;1.52;;;;;;;21.00;30.42;102464.16;16113711;19;130343;-45
2023/04/04 19:56:45;;;;;;;19.77;1.80;;;;;;;20.98;30.96;102457.97;16119634;19;129688;-45
2023/04/04 20:02:37;;;;;;;16.13;1.70;;;;;;;20.96;30.80;102457.34;16117007;19;130971;-44
2023/04/04 20:07:59;;;;;;;17.60;1.70;;;;;;;20.89;30.71;102452.69;16117969;19;129560;-42
2023/04/04 20:13:21;;;;;;;16.27;1.55;;;;;;;20.82;30.96;102451.84;16111712;19;133680;-44
2023/04/04 20:18:45;;;;;;;15.10;1.63;;;;;;;20.77;31.42;102448.03;16111732;19;131144;-42
2023/04/04 20:24:07;;;;;;;24.58;2.13;;;;;;;20.67;31.31;102448.53;16104057;19;131138;-47
2023/04/04 20:29:30;;;;;;;19.30;1.88;;;;;;;20.57;31.66;102441.50;16109428;19;130703;-47
2023/04/04 20:34:52;;;;;;;14.10;1.92;;;;;;;20.47;31.63;102441.13;16114970;19;130300;-48
2023/04/04 20:40:37;;;;;;;12.30;1.50;;;;;;;20.43;31.76;102445.44;16112508;19;129513;-44
2023/04/04 20:45:59;;;;;;;9.25;1.70;;;;;;;20.36;31.91;102447.41;16111640;19;132392;-44
2023/04/04 20:51:31;;;;;;;13.02;1.40;;;;;;;20.32;31.88;102443.34;16111785;19;130111;-47
2023/04/04 20:56:55;;;;;;;10.50;1.35;;;;;;;20.23;31.90;102443.59;16104633;19;130120;-45
2023/04/04 21:02:22;;;;;;;12.75;1.40;;;;;;;20.17;32.22;102443.63;16111951;19;130474;-45
2023/04/04 21:07:44;;;;;;;12.38;1.50;;;;;;;20.10;32.51;102450.06;16107833;19;129552;-46
2023/04/04 21:13:06;;;;;;;12.85;1.40;;;;;;;20.05;32.82;102444.31;16106742;19;131164;-44
2023/04/04 21:18:31;;;;;;;22.90;1.80;;;;;;;19.98;32.58;102441.53;16106544;19;130579;-45
2023/04/04 21:24:08;;;;;;;14.70;1.55;;;;;;;19.91;32.45;102450.94;16117035;19;129609;-47
2023/04/04 21:29:30;;;;;;;8.35;1.25;;;;;;;19.84;32.31;102440.72;16124097;19;131816;-44
2023/04/04 21:34:52;;;;;;;15.07;1.85;;;;;;;19.77;32.39;102433.47;16125973;19;129647;-47
2023/04/04 21:40:15;;;;;;;13.30;1.63;;;;;;;19.71;32.39;102431.56;16125916;19;129534;-44
2023/04/04 21:45:37;;;;;;;15.18;1.85;;;;;;;19.64;32.26;102420.47;16121610;19;129228;-43
2023/04/04 21:50:58;;;;;;;6.35;1.55;;;;;;;19.57;32.20;102412.16;16122739;19;129911;-43
2023/04/04 21:56:25;;;;;;;10.25;1.75;;;;;;;19.52;32.39;102420.28;16121828;19;129678;-50
2023/04/04 22:01:49;;;;;;;6.60;1.60;;;;;;;19.47;32.11;102422.84;16119441;19;129683;-48
2023/04/04 22:07:11;;;;;;;14.13;1.85;;;;;;;19.42;32.36;102414.31;16124267;19;129624;-47
2023/04/04 22:12:38;;;;;;;4.63;1.80;;;;;;;19.36;32.03;102405.78;16123615;19;132373;-45
2023/04/04 22:18:02;;;;;;;3.65;1.20;;;;;;;19.33;32.43;102406.19;16114526;19;130416;-44
2023/04/04 22:23:24;;;;;;;9.07;1.75;;;;;;;19.28;32.43;102400.47;16125433;19;129807;-45
2023/04/04 22:28:46;;;;;;;5.50;1.48;;;;;;;19.24;32.23;102399.19;16124900;19;129477;-43
2023/04/04 22:34:09;;;;;;;5.30;1.55;;;;;;;19.19;32.72;102393.41;16119236;19;129604;-45
2023/04/04 22:39:33;;;;;;;3.23;1.20;;;;;;;19.15;32.30;102392.13;16120588;19;129516;-44
2023/04/04 22:44:55;;;;;;;4.78;1.20;;;;;;;19.12;32.63;102387.00;16120043;19;129795;-46
2023/04/04 22:50:21;;;;;;;2.58;1.23;;;;;;;19.08;32.84;102387.41;16117211;19;129731;-47
2023/04/04 22:55:43;;;;;;;4.45;1.27;;;;;;;19.05;32.55;102373.13;16118550;19;130790;-45
2023/04/04 23:01:05;;;;;;;5.25;1.25;;;;;;;19.00;32.53;102379.31;16117156;19;129480;-45
2023/04/04 23:06:28;;;;;;;6.45;1.20;;;;;;;18.98;32.28;102375.88;16112150;19;131174;-45
2023/04/04 23:11:50;;;;;;;4.68;1.77;;;;;;;18.94;32.62;102366.31;16117781;19;129505;-46
2023/04/04 23:17:12;;;;;;;4.78;1.77;;;;;;;18.90;32.30;102362.25;16115329;19;131574;-46
2023/04/04 23:22:34;;;;;;;7.68;1.58;;;;;;;18.88;32.43;102368.03;16114814;19;129581;-46
2023/04/04 23:27:56;;;;;;;2.38;1.33;;;;;;;18.85;32.50;102359.25;16116664;19;132168;-43
2023/04/04 23:33:17;;;;;;;2.08;1.20;;;;;;;18.82;32.63;102360.53;16113689;19;129914;-46
2023/04/04 23:38:39;;;;;;;2.40;1.38;;;;;;;18.80;32.39;102353.50;16113399;19;130546;-44
2023/04/04 23:44:01;;;;;;;3.90;1.10;;;;;;;18.77;32.84;102363.94;16106867;19;130680;-43
2023/04/04 23:49:23;;;;;;;2.92;1.63;;;;;;;18.74;32.37;102356.06;16110897;19;130710;-44
2023/04/04 23:54:45;;;;;;;3.28;1.27;;;;;;;18.72;32.52;102358.19;16116005;19;131794;-47
